sensor_id;sensor_type;location;lat;lon;timestamp;temperature;humidity
7842;DHT22;3966;51.052;13.820;2023-04-05T00:00:44;3.20;99.90
7842;DHT22;3966;51.052;13.820;2023-04-05T00:03:09;3.00;99.90
7842;DHT22;3966;51.052;13.820;2023-04-05T00:05:35;2.90;99.90
7842;DHT22;3966;51.052;13.820;2023-04-05T00:08:02;3.00;99.90
7842;DHT22;3966;51.052;13.820;2023-04-05T00:10:30;2.80;99.90
7842;DHT22;3966;51.052;13.820;2023-04-05T00:12:56;2.70;99.90
7842;DHT22;3966;51.052;13.820;2023-04-05T00:15:22;2.80;99.90
7842;DHT22;3966;51.052;13.820;2023-04-05T00:17:48;2.70;99.90
7842;DHT22;3966;51.052;13.820;2023-04-05T00:20:14;2.70;99.90
7842;DHT22;3966;51.052;13.820;2023-04-05T00:22:41;2.70;99.90
7842;DHT22;3966;51.052;13.820;2023-04-05T00:25:11;2.70;99.90
7842;DHT22;3966;51.052;13.820;2023-04-05T00:27:37;2.70;99.90
7842;DHT22;3966;51.052;13.820;2023-04-05T00:30:03;2.60;99.90
7842;DHT22;3966;51.052;13.820;2023-04-05T00:32:29;2.70;99.90
7842;DHT22;3966;51.052;13.820;2023-04-05T00:34:54;2.60;99.90
7842;DHT22;3966;51.052;13.820;2023-04-05T00:37:20;2.60;99.90
7842;DHT22;3966;51.052;13.820;2023-04-05T00:39:46;2.40;99.90
7842;DHT22;3966;51.052;13.820;2023-04-05T00:42:13;2.50;99.90
7842;DHT22;3966;51.052;13.820;2023-04-05T00:44:39;2.60;99.90
7842;DHT22;3966;51.052;13.820;2023-04-05T00:47:05;2.60;99.90
7842;DHT22;3966;51.052;13.820;2023-04-05T00:49:33;2.70;99.90
7842;DHT22;3966;51.052;13.820;2023-04-05T00:51:59;2.80;99.90
7842;DHT22;3966;51.052;13.820;2023-04-05T00:54:26;2.80;99.90
7842;DHT22;3966;51.052;13.820;2023-04-05T00:57:03;2.70;99.90
7842;DHT22;3966;51.052;13.820;2023-04-05T00:59:31;2.70;99.90
7842;DHT22;3966;51.052;13.820;2023-04-05T01:04:54;2.60;99.90
7842;DHT22;3966;51.052;13.820;2023-04-05T01:07:41;2.60;99.90
7842;DHT22;3966;51.052;13.820;2023-04-05T01:10:12;2.70;99.90
7842;DHT22;3966;51.052;13.820;2023-04-05T01:12:39;2.80;99.90
7842;DHT22;3966;51.052;13.820;2023-04-05T01:15:06;2.80;99.90
7842;DHT22;3966;51.052;13.820;2023-04-05T01:17:32;2.80;99.90
7842;DHT22;3966;51.052;13.820;2023-04-05T01:20:03;2.80;99.90
7842;DHT22;3966;51.052;13.820;2023-04-05T01:36:17;2.70;99.90
7842;DHT22;3966;51.052;13.820;2023-04-05T01:38:45;2.70;99.90
7842;DHT22;3966;51.052;13.820;2023-04-05T01:41:13;2.70;99.90
7842;DHT22;3966;51.052;13.820;2023-04-05T01:43:39;2.80;99.90
7842;DHT22;3966;51.052;13.820;2023-04-05T01:46:05;2.70;99.90
7842;DHT22;3966;51.052;13.820;2023-04-05T01:48:30;2.60;99.90
7842;DHT22;3966;51.052;13.820;2023-04-05T01:50:56;2.60;99.90
7842;DHT22;3966;51.052;13.820;2023-04-05T01:53:22;2.70;99.90
7842;DHT22;3966;51.052;13.820;2023-04-05T01:55:47;2.60;99.90
7842;DHT22;3966;51.052;13.820;2023-04-05T01:58:13;2.70;99.90
7842;DHT22;3966;51.052;13.820;2023-04-05T02:00:39;2.80;99.90
7842;DHT22;3966;51.052;13.820;2023-04-05T02:03:04;2.70;99.90
7842;DHT22;3966;51.052;13.820;2023-04-05T02:05:30;2.80;99.90
7842;DHT22;3966;51.052;13.820;2023-04-05T02:07:56;2.80;99.90
7842;DHT22;3966;51.052;13.820;2023-04-05T02:10:24;2.70;99.90
7842;DHT22;3966;51.052;13.820;2023-04-05T02:12:49;2.70;99.90
7842;DHT22;3966;51.052;13.820;2023-04-05T02:15:15;2.70;99.90
7842;DHT22;3966;51.052;13.820;2023-04-05T02:17:41;2.70;99.90
7842;DHT22;3966;51.052;13.820;2023-04-05T02:20:11;2.60;99.90
7842;DHT22;3966;51.052;13.820;2023-04-05T02:22:39;2.60;99.90
7842;DHT22;3966;51.052;13.820;2023-04-05T02:25:05;2.60;99.90
7842;DHT22;3966;51.052;13.820;2023-04-05T02:27:33;2.70;99.90
7842;DHT22;3966;51.052;13.820;2023-04-05T02:29:59;2.70;99.90
7842;DHT22;3966;51.052;13.820;2023-04-05T02:32:25;2.70;99.90
7842;DHT22;3966;51.052;13.820;2023-04-05T02:34:50;2.70;99.90
7842;DHT22;3966;51.052;13.820;2023-04-05T02:37:18;2.70;99.90
7842;DHT22;3966;51.052;13.820;2023-04-05T02:39:43;2.70;99.90
7842;DHT22;3966;51.052;13.820;2023-04-05T02:42:09;2.80;99.90
7842;DHT22;3966;51.052;13.820;2023-04-05T02:44:35;2.80;99.90
7842;DHT22;3966;51.052;13.820;2023-04-05T02:47:01;2.80;99.90
7842;DHT22;3966;51.052;13.820;2023-04-05T02:49:26;2.80;99.90
7842;DHT22;3966;51.052;13.820;2023-04-05T02:51:52;2.70;99.90
7842;DHT22;3966;51.052;13.820;2023-04-05T02:54:20;2.70;99.90
7842;DHT22;3966;51.052;13.820;2023-04-05T02:56:45;2.70;99.90
7842;DHT22;3966;51.052;13.820;2023-04-05T02:59:11;2.70;99.90
7842;DHT22;3966;51.052;13.820;2023-04-05T03:01:38;2.70;99.90
7842;DHT22;3966;51.052;13.820;2023-04-05T03:04:09;2.70;99.90
7842;DHT22;3966;51.052;13.820;2023-04-05T03:06:36;2.80;99.90
7842;DHT22;3966;51.052;13.820;2023-04-05T03:09:03;2.70;99.90
7842;DHT22;3966;51.052;13.820;2023-04-05T03:11:29;2.70;99.90
7842;DHT22;3966;51.052;13.820;2023-04-05T03:13:55;2.60;99.90
7842;DHT22;3966;51.052;13.820;2023-04-05T03:16:20;2.60;99.90
7842;DHT22;3966;51.052;13.820;2023-04-05T03:18:48;2.70;99.90
7842;DHT22;3966;51.052;13.820;2023-04-05T03:21:13;2.70;99.90
7842;DHT22;3966;51.052;13.820;2023-04-05T03:23:42;2.60;99.90
7842;DHT22;3966;51.052;13.820;2023-04-05T03:26:08;2.60;99.90
7842;DHT22;3966;51.052;13.820;2023-04-05T03:28:34;2.70;99.90
7842;DHT22;3966;51.052;13.820;2023-04-05T03:31:00;2.60;99.90
7842;DHT22;3966;51.052;13.820;2023-04-05T03:33:26;2.70;99.90
7842;DHT22;3966;51.052;13.820;2023-04-05T03:35:51;2.60;99.90
7842;DHT22;3966;51.052;13.820;2023-04-05T03:38:17;2.60;99.90
7842;DHT22;3966;51.052;13.820;2023-04-05T03:40:42;2.40;99.90
7842;DHT22;3966;51.052;13.820;2023-04-05T03:43:08;2.40;99.90
7842;DHT22;3966;51.052;13.820;2023-04-05T03:45:34;2.40;99.90
7842;DHT22;3966;51.052;13.820;2023-04-05T03:48:00;2.40;99.90
7842;DHT22;3966;51.052;13.820;2023-04-05T03:50:27;2.50;99.90
7842;DHT22;3966;51.052;13.820;2023-04-05T03:52:53;2.50;99.90
7842;DHT22;3966;51.052;13.820;2023-04-05T03:55:19;2.50;99.90
7842;DHT22;3966;51.052;13.820;2023-04-05T03:57:44;2.60;99.90
7842;DHT22;3966;51.052;13.820;2023-04-05T04:00:10;2.60;99.90
7842;DHT22;3966;51.052;13.820;2023-04-05T04:02:46;2.60;99.90
7842;DHT22;3966;51.052;13.820;2023-04-05T04:05:13;2.60;99.90
7842;DHT22;3966;51.052;13.820;2023-04-05T04:07:39;2.60;99.90
7842;DHT22;3966;51.052;13.820;2023-04-05T04:10:07;2.60;99.90
7842;DHT22;3966;51.052;13.820;2023-04-05T04:12:32;2.70;99.90
7842;DHT22;3966;51.052;13.820;2023-04-05T04:14:58;2.60;99.90
7842;DHT22;3966;51.052;13.820;2023-04-05T04:17:28;2.50;99.90
7842;DHT22;3966;51.052;13.820;2023-04-05T04:19:55;2.50;99.90
7842;DHT22;3966;51.052;13.820;2023-04-05T04:22:21;2.50;99.90
7842;DHT22;3966;51.052;13.820;2023-04-05T04:24:48;2.50;99.90
7842;DHT22;3966;51.052;13.820;2023-04-05T04:27:18;2.60;99.90
7842;DHT22;3966;51.052;13.820;2023-04-05T04:29:45;2.50;99.90
7842;DHT22;3966;51.052;13.820;2023-04-05T04:32:15;2.50;99.90
7842;DHT22;3966;51.052;13.820;2023-04-05T04:34:42;2.50;99.90
7842;DHT22;3966;51.052;13.820;2023-04-05T04:37:13;2.50;99.90
7842;DHT22;3966;51.052;13.820;2023-04-05T04:39:46;2.60;99.90
7842;DHT22;3966;51.052;13.820;2023-04-05T04:42:16;2.60;99.90
7842;DHT22;3966;51.052;13.820;2023-04-05T04:44:47;2.60;99.90
7842;DHT22;3966;51.052;13.820;2023-04-05T04:47:13;2.50;99.90
7842;DHT22;3966;51.052;13.820;2023-04-05T04:49:42;2.50;99.90
7842;DHT22;3966;51.052;13.820;2023-04-05T04:52:08;2.50;99.90
7842;DHT22;3966;51.052;13.820;2023-04-05T04:54:35;2.50;99.90
7842;DHT22;3966;51.052;13.820;2023-04-05T04:57:01;2.50;99.90
7842;DHT22;3966;51.052;13.820;2023-04-05T04:59:27;2.50;99.90
7842;DHT22;3966;51.052;13.820;2023-04-05T05:01:53;2.40;99.90
7842;DHT22;3966;51.052;13.820;2023-04-05T05:04:19;2.30;99.90
7842;DHT22;3966;51.052;13.820;2023-04-05T05:06:45;2.30;99.90
7842;DHT22;3966;51.052;13.820;2023-04-05T05:09:10;2.30;99.90
7842;DHT22;3966;51.052;13.820;2023-04-05T05:11:36;2.20;99.90
7842;DHT22;3966;51.052;13.820;2023-04-05T05:14:02;2.10;99.90
7842;DHT22;3966;51.052;13.820;2023-04-05T05:16:28;2.10;99.90
7842;DHT22;3966;51.052;13.820;2023-04-05T05:18:54;2.10;99.90
7842;DHT22;3966;51.052;13.820;2023-04-05T05:21:20;2.10;99.90
7842;DHT22;3966;51.052;13.820;2023-04-05T05:23:46;2.10;99.90
7842;DHT22;3966;51.052;13.820;2023-04-05T05:26:12;2.10;99.90
7842;DHT22;3966;51.052;13.820;2023-04-05T05:28:39;2.10;99.90
7842;DHT22;3966;51.052;13.820;2023-04-05T05:31:05;2.10;99.90
7842;DHT22;3966;51.052;13.820;2023-04-05T05:33:30;2.00;99.90
7842;DHT22;3966;51.052;13.820;2023-04-05T05:35:56;2.10;99.90
7842;DHT22;3966;51.052;13.820;2023-04-05T05:38:22;2.00;99.90
7842;DHT22;3966;51.052;13.820;2023-04-05T05:40:54;2.00;99.90
7842;DHT22;3966;51.052;13.820;2023-04-05T05:43:20;2.00;99.90
7842;DHT22;3966;51.052;13.820;2023-04-05T05:45:45;2.10;99.90
7842;DHT22;3966;51.052;13.820;2023-04-05T05:48:11;2.00;99.90
7842;DHT22;3966;51.052;13.820;2023-04-05T05:50:37;2.00;99.90
7842;DHT22;3966;51.052;13.820;2023-04-05T05:53:04;2.00;99.90
7842;DHT22;3966;51.052;13.820;2023-04-05T05:55:29;2.10;99.90
7842;DHT22;3966;51.052;13.820;2023-04-05T05:57:55;2.00;99.90
7842;DHT22;3966;51.052;13.820;2023-04-05T06:00:21;2.10;99.90
7842;DHT22;3966;51.052;13.820;2023-04-05T06:02:48;2.00;99.90
7842;DHT22;3966;51.052;13.820;2023-04-05T06:05:14;2.10;99.90
7842;DHT22;3966;51.052;13.820;2023-04-05T06:07:39;2.10;99.90
7842;DHT22;3966;51.052;13.820;2023-04-05T06:10:06;2.10;99.90
7842;DHT22;3966;51.052;13.820;2023-04-05T06:12:32;2.10;99.90
7842;DHT22;3966;51.052;13.820;2023-04-05T06:14:57;2.10;99.90
7842;DHT22;3966;51.052;13.820;2023-04-05T06:17:23;2.20;99.90
7842;DHT22;3966;51.052;13.820;2023-04-05T06:19:49;2.20;99.90
7842;DHT22;3966;51.052;13.820;2023-04-05T06:22:15;2.20;99.90
7842;DHT22;3966;51.052;13.820;2023-04-05T06:24:42;2.20;99.90
7842;DHT22;3966;51.052;13.820;2023-04-05T06:27:07;2.30;99.90
7842;DHT22;3966;51.052;13.820;2023-04-05T06:29:33;2.40;99.90
7842;DHT22;3966;51.052;13.820;2023-04-05T06:32:02;2.50;99.90
7842;DHT22;3966;51.052;13.820;2023-04-05T06:34:27;2.50;99.90
7842;DHT22;3966;51.052;13.820;2023-04-05T06:36:53;2.60;99.90
7842;DHT22;3966;51.052;13.820;2023-04-05T06:39:20;2.80;99.90
7842;DHT22;3966;51.052;13.820;2023-04-05T06:41:46;2.90;99.90
7842;DHT22;3966;51.052;13.820;2023-04-05T06:44:11;3.00;99.90
7842;DHT22;3966;51.052;13.820;2023-04-05T06:46:37;3.00;99.90
7842;DHT22;3966;51.052;13.820;2023-04-05T06:49:03;3.10;99.90
7842;DHT22;3966;51.052;13.820;2023-04-05T06:51:28;3.20;99.90
7842;DHT22;3966;51.052;13.820;2023-04-05T06:53:54;3.10;99.90
7842;DHT22;3966;51.052;13.820;2023-04-05T06:56:20;3.30;99.90
7842;DHT22;3966;51.052;13.820;2023-04-05T06:58:46;3.30;99.90
7842;DHT22;3966;51.052;13.820;2023-04-05T07:01:12;3.40;99.90
7842;DHT22;3966;51.052;13.820;2023-04-05T07:03:41;3.50;99.90
7842;DHT22;3966;51.052;13.820;2023-04-05T07:06:06;3.60;99.90
7842;DHT22;3966;51.052;13.820;2023-04-05T07:08:34;3.60;99.90
7842;DHT22;3966;51.052;13.820;2023-04-05T07:11:00;3.50;99.90
7842;DHT22;3966;51.052;13.820;2023-04-05T07:13:25;3.70;99.90
7842;DHT22;3966;51.052;13.820;2023-04-05T07:15:52;3.80;99.90
7842;DHT22;3966;51.052;13.820;2023-04-05T07:18:23;3.90;99.90
7842;DHT22;3966;51.052;13.820;2023-04-05T07:20:49;4.00;99.90
7842;DHT22;3966;51.052;13.820;2023-04-05T07:23:15;4.00;99.90
7842;DHT22;3966;51.052;13.820;2023-04-05T07:25:42;4.10;99.90
7842;DHT22;3966;51.052;13.820;2023-04-05T07:28:08;4.20;99.90
7842;DHT22;3966;51.052;13.820;2023-04-05T07:30:33;4.20;99.90
7842;DHT22;3966;51.052;13.820;2023-04-05T07:33:00;4.30;99.90
7842;DHT22;3966;51.052;13.820;2023-04-05T07:35:26;4.30;99.90
7842;DHT22;3966;51.052;13.820;2023-04-05T07:37:52;4.40;99.90
7842;DHT22;3966;51.052;13.820;2023-04-05T07:40:18;4.50;99.90
7842;DHT22;3966;51.052;13.820;2023-04-05T07:42:44;4.60;99.90
7842;DHT22;3966;51.052;13.820;2023-04-05T07:45:10;4.70;99.90
7842;DHT22;3966;51.052;13.820;2023-04-05T07:47:35;4.70;99.90
7842;DHT22;3966;51.052;13.820;2023-04-05T07:50:01;4.80;99.90
7842;DHT22;3966;51.052;13.820;2023-04-05T07:52:27;4.50;99.90
7842;DHT22;3966;51.052;13.820;2023-04-05T07:54:54;4.70;99.90
7842;DHT22;3966;51.052;13.820;2023-04-05T07:57:20;4.60;99.90
7842;DHT22;3966;51.052;13.820;2023-04-05T07:59:47;4.60;99.90
7842;DHT22;3966;51.052;13.820;2023-04-05T08:02:15;4.80;99.90
7842;DHT22;3966;51.052;13.820;2023-04-05T08:04:41;4.80;99.90
7842;DHT22;3966;51.052;13.820;2023-04-05T08:07:06;5.00;99.90
7842;DHT22;3966;51.052;13.820;2023-04-05T08:09:32;5.10;99.90
7842;DHT22;3966;51.052;13.820;2023-04-05T08:11:59;5.10;99.90
7842;DHT22;3966;51.052;13.820;2023-04-05T08:14:25;5.10;99.90
7842;DHT22;3966;51.052;13.820;2023-04-05T08:16:51;5.00;99.90
7842;DHT22;3966;51.052;13.820;2023-04-05T08:19:17;5.10;99.90
7842;DHT22;3966;51.052;13.820;2023-04-05T08:21:42;5.20;99.90
7842;DHT22;3966;51.052;13.820;2023-04-05T08:24:08;5.40;99.90
7842;DHT22;3966;51.052;13.820;2023-04-05T08:26:34;5.50;99.90
7842;DHT22;3966;51.052;13.820;2023-04-05T08:29:02;5.60;99.90
7842;DHT22;3966;51.052;13.820;2023-04-05T08:31:31;5.70;99.90
7842;DHT22;3966;51.052;13.820;2023-04-05T08:34:01;5.70;99.90
7842;DHT22;3966;51.052;13.820;2023-04-05T08:36:27;5.80;99.90
7842;DHT22;3966;51.052;13.820;2023-04-05T08:38:53;5.90;99.90
7842;DHT22;3966;51.052;13.820;2023-04-05T08:41:22;5.70;99.90
7842;DHT22;3966;51.052;13.820;2023-04-05T08:44:02;5.90;99.90
7842;DHT22;3966;51.052;13.820;2023-04-05T08:46:34;5.90;99.90
7842;DHT22;3966;51.052;13.820;2023-04-05T08:49:05;5.80;99.90
7842;DHT22;3966;51.052;13.820;2023-04-05T08:51:31;5.80;99.90
7842;DHT22;3966;51.052;13.820;2023-04-05T08:53:58;6.00;99.90
7842;DHT22;3966;51.052;13.820;2023-04-05T08:56:26;6.00;99.90
7842;DHT22;3966;51.052;13.820;2023-04-05T08:59:03;5.90;99.90
7842;DHT22;3966;51.052;13.820;2023-04-05T09:01:31;5.90;99.90
7842;DHT22;3966;51.052;13.820;2023-04-05T09:07:00;5.90;99.90
7842;DHT22;3966;51.052;13.820;2023-04-05T09:09:31;5.90;99.90
7842;DHT22;3966;51.052;13.820;2023-04-05T09:11:59;6.10;99.90
7842;DHT22;3966;51.052;13.820;2023-04-05T09:14:27;5.80;99.90
7842;DHT22;3966;51.052;13.820;2023-04-05T09:16:53;6.10;99.90
7842;DHT22;3966;51.052;13.820;2023-04-05T09:19:19;6.00;99.90
7842;DHT22;3966;51.052;13.820;2023-04-05T09:22:04;6.20;99.90
7842;DHT22;3966;51.052;13.820;2023-04-05T09:27:07;6.10;99.90
7842;DHT22;3966;51.052;13.820;2023-04-05T09:29:33;6.00;99.90
7842;DHT22;3966;51.052;13.820;2023-04-05T09:32:03;6.00;99.90
7842;DHT22;3966;51.052;13.820;2023-04-05T09:34:30;5.90;99.90
7842;DHT22;3966;51.052;13.820;2023-04-05T09:37:01;5.90;99.90
7842;DHT22;3966;51.052;13.820;2023-04-05T09:39:31;6.00;99.90
7842;DHT22;3966;51.052;13.820;2023-04-05T09:45:00;6.00;99.90
7842;DHT22;3966;51.052;13.820;2023-04-05T09:47:31;6.20;99.90
7842;DHT22;3966;51.052;13.820;2023-04-05T09:49:59;6.20;99.90
7842;DHT22;3966;51.052;13.820;2023-04-05T09:52:30;6.40;99.90
7842;DHT22;3966;51.052;13.820;2023-04-05T09:54:58;6.60;99.90
7842;DHT22;3966;51.052;13.820;2023-04-05T09:57:27;6.70;99.90
7842;DHT22;3966;51.052;13.820;2023-04-05T09:59:54;6.80;99.90
7842;DHT22;3966;51.052;13.820;2023-04-05T10:02:33;6.60;99.90
7842;DHT22;3966;51.052;13.820;2023-04-05T10:05:08;6.50;99.90
7842;DHT22;3966;51.052;13.820;2023-04-05T10:07:38;6.50;99.90
7842;DHT22;3966;51.052;13.820;2023-04-05T10:10:04;6.60;99.90
7842;DHT22;3966;51.052;13.820;2023-04-05T10:12:31;6.80;99.90
7842;DHT22;3966;51.052;13.820;2023-04-05T10:14:58;6.80;99.90
7842;DHT22;3966;51.052;13.820;2023-04-05T10:17:30;6.80;99.90
7842;DHT22;3966;51.052;13.820;2023-04-05T10:20:14;6.70;99.90
7842;DHT22;3966;51.052;13.820;2023-04-05T10:28:32;7.50;99.90
7842;DHT22;3966;51.052;13.820;2023-04-05T10:36:11;7.00;97.10
7842;DHT22;3966;51.052;13.820;2023-04-05T10:38:53;7.20;97.90
7842;DHT22;3966;51.052;13.820;2023-04-05T10:41:23;7.50;97.20
7842;DHT22;3966;51.052;13.820;2023-04-05T10:43:50;7.60;97.40
7842;DHT22;3966;51.052;13.820;2023-04-05T10:46:19;7.90;96.50
7842;DHT22;3966;51.052;13.820;2023-04-05T10:49:02;7.80;95.40
7842;DHT22;3966;51.052;13.820;2023-04-05T10:51:29;7.50;94.40
7842;DHT22;3966;51.052;13.820;2023-04-05T10:53:55;7.10;94.20
7842;DHT22;3966;51.052;13.820;2023-04-05T10:56:22;7.20;93.90
7842;DHT22;3966;51.052;13.820;2023-04-05T10:58:49;7.20;93.70
7842;DHT22;3966;51.052;13.820;2023-04-05T11:01:17;7.10;92.90
7842;DHT22;3966;51.052;13.820;2023-04-05T11:06:31;7.00;94.70
7842;DHT22;3966;51.052;13.820;2023-04-05T11:09:11;6.90;95.90
7842;DHT22;3966;51.052;13.820;2023-04-05T11:11:58;6.70;95.90
7842;DHT22;3966;51.052;13.820;2023-04-05T11:14:24;6.60;96.60
7842;DHT22;3966;51.052;13.820;2023-04-05T11:16:53;6.50;96.90
7842;DHT22;3966;51.052;13.820;2023-04-05T11:19:47;6.40;97.60
7842;DHT22;3966;51.052;13.820;2023-04-05T11:22:24;6.50;97.20
7842;DHT22;3966;51.052;13.820;2023-04-05T11:27:29;6.70;95.60
7842;DHT22;3966;51.052;13.820;2023-04-05T11:29:56;6.60;94.50
7842;DHT22;3966;51.052;13.820;2023-04-05T11:32:22;6.50;94.20
7842;DHT22;3966;51.052;13.820;2023-04-05T11:34:59;6.70;95.10
7842;DHT22;3966;51.052;13.820;2023-04-05T11:43:05;7.40;96.20
7842;DHT22;3966;51.052;13.820;2023-04-05T11:45:32;7.80;94.20
7842;DHT22;3966;51.052;13.820;2023-04-05T11:48:09;7.90;93.80
7842;DHT22;3966;51.052;13.820;2023-04-05T11:50:36;7.80;94.00
7842;DHT22;3966;51.052;13.820;2023-04-05T11:53:13;7.70;93.80
7842;DHT22;3966;51.052;13.820;2023-04-05T11:55:41;7.60;92.90
7842;DHT22;3966;51.052;13.820;2023-04-05T11:58:21;7.70;93.70
7842;DHT22;3966;51.052;13.820;2023-04-05T12:01:02;7.80;92.80
7842;DHT22;3966;51.052;13.820;2023-04-05T12:03:28;7.30;93.90
7842;DHT22;3966;51.052;13.820;2023-04-05T12:05:57;7.30;94.90
7842;DHT22;3966;51.052;13.820;2023-04-05T12:08:43;7.50;94.60
7842;DHT22;3966;51.052;13.820;2023-04-05T12:11:24;7.40;94.90
7842;DHT22;3966;51.052;13.820;2023-04-05T12:13:55;7.70;94.60
7842;DHT22;3966;51.052;13.820;2023-04-05T12:16:21;7.80;93.80
7842;DHT22;3966;51.052;13.820;2023-04-05T12:18:53;7.60;92.70
7842;DHT22;3966;51.052;13.820;2023-04-05T12:21:19;7.40;92.00
7842;DHT22;3966;51.052;13.820;2023-04-05T12:23:45;7.60;92.60
7842;DHT22;3966;51.052;13.820;2023-04-05T12:26:11;7.70;91.30
7842;DHT22;3966;51.052;13.820;2023-04-05T12:28:55;7.90;91.70
7842;DHT22;3966;51.052;13.820;2023-04-05T12:31:40;7.90;91.20
7842;DHT22;3966;51.052;13.820;2023-04-05T12:34:07;7.80;91.20
7842;DHT22;3966;51.052;13.820;2023-04-05T12:36:33;7.90;91.80
7842;DHT22;3966;51.052;13.820;2023-04-05T12:38:59;7.80;92.40
7842;DHT22;3966;51.052;13.820;2023-04-05T12:41:28;7.70;92.50
7842;DHT22;3966;51.052;13.820;2023-04-05T12:43:54;7.90;93.00
7842;DHT22;3966;51.052;13.820;2023-04-05T12:46:47;7.80;92.70
7842;DHT22;3966;51.052;13.820;2023-04-05T12:49:15;7.80;93.00
7842;DHT22;3966;51.052;13.820;2023-04-05T12:51:44;7.70;93.70
7842;DHT22;3966;51.052;13.820;2023-04-05T12:54:11;7.40;93.30
7842;DHT22;3966;51.052;13.820;2023-04-05T12:56:38;7.40;93.80
7842;DHT22;3966;51.052;13.820;2023-04-05T12:59:06;7.30;93.60
7842;DHT22;3966;51.052;13.820;2023-04-05T13:01:33;7.40;93.70
7842;DHT22;3966;51.052;13.820;2023-04-05T13:03:59;7.50;93.20
7842;DHT22;3966;51.052;13.820;2023-04-05T13:06:30;7.40;93.20
7842;DHT22;3966;51.052;13.820;2023-04-05T13:08:56;7.40;93.00
7842;DHT22;3966;51.052;13.820;2023-04-05T13:11:22;7.40;93.10
7842;DHT22;3966;51.052;13.820;2023-04-05T13:13:48;7.50;92.70
7842;DHT22;3966;51.052;13.820;2023-04-05T13:16:14;7.40;92.60
7842;DHT22;3966;51.052;13.820;2023-04-05T13:18:40;7.40;93.10
7842;DHT22;3966;51.052;13.820;2023-04-05T13:21:06;7.50;93.80
7842;DHT22;3966;51.052;13.820;2023-04-05T13:23:35;7.80;93.20
7842;DHT22;3966;51.052;13.820;2023-04-05T13:26:04;7.70;92.40
7842;DHT22;3966;51.052;13.820;2023-04-05T13:28:30;7.90;92.30
7842;DHT22;3966;51.052;13.820;2023-04-05T13:30:56;7.90;92.50
7842;DHT22;3966;51.052;13.820;2023-04-05T13:33:22;8.00;92.10
7842;DHT22;3966;51.052;13.820;2023-04-05T13:35:48;8.00;92.20
7842;DHT22;3966;51.052;13.820;2023-04-05T13:38:14;8.00;92.20
7842;DHT22;3966;51.052;13.820;2023-04-05T13:40:40;8.00;92.50
7842;DHT22;3966;51.052;13.820;2023-04-05T13:43:06;7.80;92.90
7842;DHT22;3966;51.052;13.820;2023-04-05T13:45:32;7.70;92.60
7842;DHT22;3966;51.052;13.820;2023-04-05T13:47:58;7.80;92.80
7842;DHT22;3966;51.052;13.820;2023-04-05T13:50:24;7.50;92.30
7842;DHT22;3966;51.052;13.820;2023-04-05T13:52:51;7.50;92.80
7842;DHT22;3966;51.052;13.820;2023-04-05T13:55:17;7.40;92.80
7842;DHT22;3966;51.052;13.820;2023-04-05T13:57:43;7.30;93.10
7842;DHT22;3966;51.052;13.820;2023-04-05T14:00:09;7.10;93.10
7842;DHT22;3966;51.052;13.820;2023-04-05T14:02:35;7.20;93.30
7842;DHT22;3966;51.052;13.820;2023-04-05T14:05:00;7.20;93.00
7842;DHT22;3966;51.052;13.820;2023-04-05T14:07:26;7.20;93.10
7842;DHT22;3966;51.052;13.820;2023-04-05T14:09:52;7.10;92.60
7842;DHT22;3966;51.052;13.820;2023-04-05T14:12:18;7.10;92.90
7842;DHT22;3966;51.052;13.820;2023-04-05T14:14:43;7.10;92.80
7842;DHT22;3966;51.052;13.820;2023-04-05T14:17:09;6.90;92.60
7842;DHT22;3966;51.052;13.820;2023-04-05T14:19:37;7.00;92.60
7842;DHT22;3966;51.052;13.820;2023-04-05T14:22:03;7.00;92.80
7842;DHT22;3966;51.052;13.820;2023-04-05T14:24:29;7.20;92.50
7842;DHT22;3966;51.052;13.820;2023-04-05T14:26:55;7.30;92.70
7842;DHT22;3966;51.052;13.820;2023-04-05T14:29:21;7.50;92.60
7842;DHT22;3966;51.052;13.820;2023-04-05T14:31:47;7.70;92.80
7842;DHT22;3966;51.052;13.820;2023-04-05T14:34:12;7.90;92.40
7842;DHT22;3966;51.052;13.820;2023-04-05T14:36:39;8.10;91.30
7842;DHT22;3966;51.052;13.820;2023-04-05T14:39:05;8.10;91.40
7842;DHT22;3966;51.052;13.820;2023-04-05T14:41:31;8.20;91.70
7842;DHT22;3966;51.052;13.820;2023-04-05T14:43:56;8.10;91.50
7842;DHT22;3966;51.052;13.820;2023-04-05T14:46:22;7.70;90.30
7842;DHT22;3966;51.052;13.820;2023-04-05T14:48:48;7.50;91.10
7842;DHT22;3966;51.052;13.820;2023-04-05T14:51:13;7.50;91.80
7842;DHT22;3966;51.052;13.820;2023-04-05T14:53:40;7.50;92.60
7842;DHT22;3966;51.052;13.820;2023-04-05T14:56:09;7.70;93.60
7842;DHT22;3966;51.052;13.820;2023-04-05T14:58:35;7.90;93.40
7842;DHT22;3966;51.052;13.820;2023-04-05T15:01:01;8.00;93.30
7842;DHT22;3966;51.052;13.820;2023-04-05T15:03:26;8.30;93.80
7842;DHT22;3966;51.052;13.820;2023-04-05T15:05:52;8.60;92.60
7842;DHT22;3966;51.052;13.820;2023-04-05T15:08:18;8.60;92.50
7842;DHT22;3966;51.052;13.820;2023-04-05T15:10:44;8.90;92.90
7842;DHT22;3966;51.052;13.820;2023-04-05T15:13:11;9.60;92.60
7842;DHT22;3966;51.052;13.820;2023-04-05T15:15:37;10.50;92.30
7842;DHT22;3966;51.052;13.820;2023-04-05T15:18:03;11.20;88.50
7842;DHT22;3966;51.052;13.820;2023-04-05T15:20:29;11.60;89.20
7842;DHT22;3966;51.052;13.820;2023-04-05T15:22:54;12.60;87.10
7842;DHT22;3966;51.052;13.820;2023-04-05T15:25:20;13.00;86.60
7842;DHT22;3966;51.052;13.820;2023-04-05T15:27:46;13.30;83.90
7842;DHT22;3966;51.052;13.820;2023-04-05T15:30:12;13.80;82.60
7842;DHT22;3966;51.052;13.820;2023-04-05T15:32:38;14.10;82.50
7842;DHT22;3966;51.052;13.820;2023-04-05T15:35:05;14.60;78.60
7842;DHT22;3966;51.052;13.820;2023-04-05T15:37:30;13.90;79.20
7842;DHT22;3966;51.052;13.820;2023-04-05T15:39:57;14.60;77.70
7842;DHT22;3966;51.052;13.820;2023-04-05T15:42:23;14.70;79.50
7842;DHT22;3966;51.052;13.820;2023-04-05T15:44:49;15.20;77.40
7842;DHT22;3966;51.052;13.820;2023-04-05T15:47:16;14.70;77.70
7842;DHT22;3966;51.052;13.820;2023-04-05T15:49:42;14.10;76.90
7842;DHT22;3966;51.052;13.820;2023-04-05T15:52:09;13.40;76.00
7842;DHT22;3966;51.052;13.820;2023-04-05T15:54:36;12.20;78.90
7842;DHT22;3966;51.052;13.820;2023-04-05T15:57:02;11.70;81.40
7842;DHT22;3966;51.052;13.820;2023-04-05T15:59:27;11.30;82.90
7842;DHT22;3966;51.052;13.820;2023-04-05T16:01:53;11.00;84.60
7842;DHT22;3966;51.052;13.820;2023-04-05T16:04:19;11.30;83.10
7842;DHT22;3966;51.052;13.820;2023-04-05T16:06:45;10.60;85.10
7842;DHT22;3966;51.052;13.820;2023-04-05T16:09:11;11.50;84.00
7842;DHT22;3966;51.052;13.820;2023-04-05T16:11:37;10.50;85.90
7842;DHT22;3966;51.052;13.820;2023-04-05T16:14:03;9.90;88.00
7842;DHT22;3966;51.052;13.820;2023-04-05T16:16:29;9.60;86.50
7842;DHT22;3966;51.052;13.820;2023-04-05T16:18:55;9.30;88.60
7842;DHT22;3966;51.052;13.820;2023-04-05T16:21:21;9.60;89.80
7842;DHT22;3966;51.052;13.820;2023-04-05T16:23:47;9.30;90.00
7842;DHT22;3966;51.052;13.820;2023-04-05T16:26:13;9.40;90.80
7842;DHT22;3966;51.052;13.820;2023-04-05T16:28:39;9.50;90.70
7842;DHT22;3966;51.052;13.820;2023-04-05T16:31:05;9.50;90.40
7842;DHT22;3966;51.052;13.820;2023-04-05T16:33:31;9.30;90.20
7842;DHT22;3966;51.052;13.820;2023-04-05T16:35:57;8.90;90.60
7842;DHT22;3966;51.052;13.820;2023-04-05T16:38:23;8.80;91.50
7842;DHT22;3966;51.052;13.820;2023-04-05T16:40:49;8.80;91.60
7842;DHT22;3966;51.052;13.820;2023-04-05T16:43:15;8.90;91.70
7842;DHT22;3966;51.052;13.820;2023-04-05T16:45:41;8.90;92.60
7842;DHT22;3966;51.052;13.820;2023-04-05T16:48:08;9.00;92.30